createdAt,value
2019-06-27T00:00:27.549Z,100193.44
2019-06-27T00:02:56.031Z,100189.47
2019-06-27T00:05:24.477Z,100192.70
2019-06-27T00:07:52.986Z,100189.67
2019-06-27T00:10:22.430Z,100186.55
2019-06-27T00:12:50.852Z,100195.16
2019-06-27T00:15:19.260Z,100192.64
2019-06-27T00:17:47.691Z,100199.48
2019-06-27T00:20:16.179Z,100199.13
2019-06-27T00:22:44.956Z,100196.95
2019-06-27T00:25:13.453Z,100193.38
2019-06-27T00:27:41.860Z,100196.18
2019-06-27T00:30:10.816Z,100196.48
2019-06-27T00:32:39.234Z,100201.14
2019-06-27T00:35:08.083Z,100205.61
2019-06-27T00:37:36.509Z,100195.91
2019-06-27T00:40:07.834Z,100198.02
2019-06-27T00:42:36.243Z,100196.00
2019-06-27T00:45:06.401Z,100195.81
2019-06-27T00:47:34.813Z,100196.45
2019-06-27T00:50:04.505Z,100193.58
2019-06-27T00:52:33.080Z,100199.99
2019-06-27T00:55:01.503Z,100193.88
2019-06-27T00:57:29.990Z,100202.08
2019-06-27T00:59:58.402Z,100195.02
2019-06-27T01:02:26.826Z,100197.70
2019-06-27T01:04:55.245Z,100197.30
2019-06-27T01:07:23.654Z,100198.64
2019-06-27T01:09:52.073Z,100199.69
2019-06-27T01:12:20.551Z,100206.40
2019-06-27T01:14:49.024Z,100200.30
2019-06-27T01:17:17.445Z,100205.73
2019-06-27T01:19:45.864Z,100196.56
2019-06-27T01:22:14.859Z,100198.06
2019-06-27T01:24:43.514Z,100198.64
2019-06-27T01:27:11.956Z,100200.08
2019-06-27T01:29:40.357Z,100197.91
2019-06-27T01:32:08.758Z,100194.31
2019-06-27T01:34:37.174Z,100201.52
2019-06-27T01:37:05.588Z,100201.62
2019-06-27T01:39:34.069Z,100199.87
2019-06-27T01:42:02.489Z,100198.94
2019-06-27T01:44:38.404Z,100200.91
2019-06-27T01:47:07.506Z,100199.77
2019-06-27T01:49:35.926Z,100197.66
2019-06-27T01:52:04.602Z,100208.08
2019-06-27T01:54:33.111Z,100206.79
2019-06-27T01:57:01.964Z,100200.97
2019-06-27T01:59:30.646Z,100205.80
2019-06-27T02:01:59.307Z,100198.69
2019-06-27T02:04:27.709Z,100203.70
2019-06-27T02:06:56.201Z,100212.78
2019-06-27T02:09:24.615Z,100208.85
2019-06-27T02:11:53.033Z,100209.30
2019-06-27T02:14:21.894Z,100210.28
2019-06-27T02:16:50.322Z,100205.14
2019-06-27T02:19:18.722Z,100202.64
2019-06-27T02:21:47.143Z,100199.11
2019-06-27T02:24:15.551Z,100208.62
2019-06-27T02:26:44.354Z,100213.14
2019-06-27T02:29:12.758Z,100204.64
2019-06-27T02:31:41.172Z,100205.55
2019-06-27T02:34:09.592Z,100203.44
2019-06-27T02:36:38.013Z,100207.56
2019-06-27T02:39:06.433Z,100204.57
2019-06-27T02:41:35.006Z,100203.27
2019-06-27T02:44:03.440Z,100206.48
2019-06-27T02:46:31.996Z,100219.04
2019-06-27T02:49:00.434Z,100215.95
2019-06-27T02:51:28.845Z,100217.33
2019-06-27T02:53:57.258Z,100213.36
2019-06-27T02:56:25.683Z,100212.55
2019-06-27T02:58:54.475Z,100213.97
2019-06-27T03:01:22.908Z,100223.84
2019-06-27T03:03:51.309Z,100216.94
2019-06-27T03:06:19.724Z,100217.03
2019-06-27T03:08:48.161Z,100211.42
2019-06-27T03:11:16.570Z,100207.17
2019-06-27T03:13:45.169Z,100208.63
2019-06-27T03:16:13.561Z,100215.85
2019-06-27T03:18:41.965Z,100216.71
2019-06-27T03:21:10.386Z,100220.73
2019-06-27T03:23:38.816Z,100218.98
2019-06-27T03:26:07.219Z,100221.25
2019-06-27T03:28:50.973Z,100221.25
2019-06-27T03:31:05.783Z,100224.86
2019-06-27T03:33:34.190Z,100222.27
2019-06-27T03:36:02.640Z,100225.44
2019-06-27T03:38:31.047Z,100221.56
2019-06-27T03:40:59.451Z,100226.52
2019-06-27T03:43:28.043Z,100231.06
2019-06-27T03:45:56.477Z,100230.21
2019-06-27T03:48:24.853Z,100235.56
2019-06-27T03:50:56.304Z,100237.39
2019-06-27T03:53:23.467Z,100238.24
2019-06-27T03:55:51.948Z,100244.08
2019-06-27T03:58:20.377Z,100250.44
2019-06-27T04:00:48.779Z,100255.84
2019-06-27T04:03:17.200Z,100258.00
2019-06-27T04:05:45.611Z,100254.42
2019-06-27T04:08:14.009Z,100251.23
2019-06-27T04:10:42.441Z,100254.75
2019-06-27T04:13:11.117Z,100252.12
2019-06-27T04:15:39.515Z,100251.27
2019-06-27T04:18:07.932Z,100254.45
2019-06-27T04:20:36.334Z,100252.75
2019-06-27T04:23:04.819Z,100250.52
2019-06-27T04:25:33.534Z,100253.49
2019-06-27T04:28:01.945Z,100264.87
2019-06-27T04:30:30.375Z,100258.91
2019-06-27T04:32:58.754Z,100267.61
2019-06-27T04:35:27.188Z,100258.44
2019-06-27T04:37:55.661Z,100264.00
2019-06-27T04:40:24.068Z,100271.31
2019-06-27T04:42:52.491Z,100270.50
2019-06-27T04:45:20.898Z,100266.59
2019-06-27T04:47:49.315Z,100268.43
2019-06-27T04:50:17.794Z,100269.02
2019-06-27T04:52:46.200Z,100265.62
2019-06-27T04:55:14.629Z,100271.17
2019-06-27T04:57:43.058Z,100272.95
2019-06-27T05:00:14.874Z,100280.59
2019-06-27T05:02:43.283Z,100278.80
2019-06-27T05:05:11.695Z,100276.52
2019-06-27T05:07:40.097Z,100284.59
2019-06-27T05:10:08.688Z,100279.38
2019-06-27T05:12:37.099Z,100279.77
2019-06-27T05:15:08.595Z,100278.78
2019-06-27T05:17:37.008Z,100281.05
2019-06-27T05:20:06.245Z,100284.64
2019-06-27T05:22:34.688Z,100281.37
2019-06-27T05:25:03.071Z,100280.81
2019-06-27T05:27:31.478Z,100289.45
2019-06-27T05:30:09.272Z,100291.92
2019-06-27T05:32:30.025Z,100281.53
2019-06-27T05:34:58.435Z,100288.09
2019-06-27T05:37:26.848Z,100287.09
2019-06-27T05:39:55.257Z,100287.55
2019-06-27T05:42:23.679Z,100288.66
2019-06-27T05:44:52.092Z,100288.00
2019-06-27T05:47:20.483Z,100294.33
2019-06-27T05:49:48.892Z,100291.34
2019-06-27T05:52:17.291Z,100288.67
2019-06-27T05:54:45.720Z,100296.05
2019-06-27T05:57:14.123Z,100292.06
2019-06-27T05:59:42.531Z,100290.36
2019-06-27T06:02:10.961Z,100292.13
2019-06-27T06:04:39.366Z,100286.48
2019-06-27T06:07:07.779Z,100284.20
2019-06-27T06:09:36.185Z,100291.52
2019-06-27T06:12:04.587Z,100295.56
2019-06-27T06:14:33.360Z,100297.83
2019-06-27T06:17:01.857Z,100298.79
2019-06-27T06:19:30.230Z,100299.31
2019-06-27T06:21:58.632Z,100294.23
2019-06-27T06:24:27.042Z,100300.34
2019-06-27T06:26:55.481Z,100303.19
2019-06-27T06:29:23.880Z,100309.62
2019-06-27T06:31:52.286Z,100301.25
2019-06-27T06:34:20.720Z,100306.62
2019-06-27T06:36:49.193Z,100304.20
2019-06-27T06:39:17.598Z,100304.58
2019-06-27T06:41:46.042Z,100306.95
2019-06-27T06:44:14.530Z,100307.56
2019-06-27T06:46:42.955Z,100307.84
2019-06-27T06:49:11.357Z,100313.41
2019-06-27T06:51:39.753Z,100307.77
2019-06-27T06:54:08.186Z,100310.16
2019-06-27T06:56:36.590Z,100310.41
2019-06-27T06:59:04.998Z,100307.94
2019-06-27T07:01:33.453Z,100306.59
2019-06-27T07:04:01.858Z,100305.71
2019-06-27T07:06:30.258Z,100311.20
2019-06-27T07:08:58.690Z,100307.62
2019-06-27T07:11:27.090Z,100318.34
2019-06-27T07:13:55.491Z,100314.77
2019-06-27T07:16:23.896Z,100308.27
2019-06-27T07:18:52.303Z,100311.63
2019-06-27T07:21:20.805Z,100304.95
2019-06-27T07:23:49.254Z,100314.52
2019-06-27T07:26:17.888Z,100309.60
2019-06-27T07:28:46.306Z,100312.39
2019-06-27T07:31:18.198Z,100309.77
2019-06-27T07:33:44.865Z,100311.66
2019-06-27T07:36:13.262Z,100311.89
2019-06-27T07:38:41.664Z,100311.75
2019-06-27T07:41:10.399Z,100324.18
2019-06-27T07:43:38.815Z,100316.38
2019-06-27T07:46:23.752Z,100316.36
2019-06-27T07:48:37.353Z,100312.98
2019-06-27T07:51:05.836Z,100326.14
2019-06-27T07:53:34.240Z,100326.14
2019-06-27T07:56:02.653Z,100318.56
2019-06-27T07:58:31.121Z,100319.50
2019-06-27T08:00:59.614Z,100322.59
2019-06-27T08:03:28.019Z,100328.66
2019-06-27T08:05:56.433Z,100327.52
2019-06-27T08:08:24.846Z,100329.84
2019-06-27T08:10:53.252Z,100325.95
2019-06-27T08:13:21.656Z,100315.90
2019-06-27T08:15:50.399Z,100322.33
2019-06-27T08:18:18.793Z,100309.38
2019-06-27T08:20:47.241Z,100319.53
2019-06-27T08:23:15.936Z,100310.65
2019-06-27T08:25:44.336Z,100317.61
2019-06-27T08:28:12.742Z,100308.81
2019-06-27T08:30:41.148Z,100299.80
2019-06-27T08:33:09.546Z,100302.55
2019-06-27T08:35:38.792Z,100304.23
2019-06-27T08:38:07.196Z,100299.07
2019-06-27T08:40:35.675Z,100301.95
2019-06-27T08:43:04.125Z,100298.75
2019-06-27T08:45:32.623Z,100300.72
2019-06-27T08:48:00.974Z,100297.03
2019-06-27T08:50:29.374Z,100296.92
2019-06-27T08:53:01.147Z,100302.85
2019-06-27T08:55:27.988Z,100299.16
2019-06-27T08:57:56.402Z,100296.03
2019-06-27T09:00:24.810Z,100307.80
2019-06-27T09:02:53.237Z,100299.56
2019-06-27T09:05:21.629Z,100290.44
2019-06-27T09:07:50.033Z,100297.41
2019-06-27T09:10:19.720Z,100293.77
2019-06-27T09:12:48.109Z,100297.53
2019-06-27T09:15:16.946Z,100298.73
2019-06-27T09:17:46.237Z,100296.19
2019-06-27T09:20:15.787Z,100295.30
2019-06-27T09:22:44.191Z,100295.34
2019-06-27T09:25:13.935Z,100289.61
2019-06-27T09:27:42.341Z,100297.66
2019-06-27T09:30:11.632Z,100293.81
2019-06-27T09:32:40.034Z,100286.61
2019-06-27T09:35:09.177Z,100288.73
2019-06-27T09:37:37.654Z,100286.33
2019-06-27T09:40:09.641Z,100285.55
2019-06-27T09:42:38.075Z,100282.83
2019-06-27T09:45:07.314Z,100284.91
2019-06-27T09:47:35.804Z,100287.75
2019-06-27T09:50:06.249Z,100281.45
2019-06-27T09:52:34.649Z,100280.75
2019-06-27T09:55:03.449Z,100283.03
2019-06-27T09:57:31.856Z,100276.80
2019-06-27T10:00:00.883Z,100275.15
2019-06-27T10:02:41.004Z,100275.42
2019-06-27T10:04:59.391Z,100279.77
2019-06-27T10:07:28.625Z,100274.45
2019-06-27T10:09:57.040Z,100273.73
2019-06-27T10:12:37.987Z,100265.09
2019-06-27T10:14:55.846Z,100278.84
2019-06-27T10:17:24.258Z,100263.05
2019-06-27T10:19:52.668Z,100271.58
2019-06-27T10:22:21.153Z,100269.25
2019-06-27T10:24:49.923Z,100267.20
2019-06-27T10:27:18.351Z,100272.25
2019-06-27T10:29:46.776Z,100266.59
2019-06-27T10:32:15.199Z,100263.66
2019-06-27T10:34:43.603Z,100263.30
2019-06-27T10:37:12.005Z,100266.50
2019-06-27T10:39:40.413Z,100263.66
2019-06-27T10:42:08.815Z,100265.65
2019-06-27T10:44:37.228Z,100257.63
2019-06-27T10:47:05.635Z,100249.23
2019-06-27T10:49:34.025Z,100255.83
2019-06-27T10:52:02.469Z,100250.74
2019-06-27T10:54:30.882Z,100261.16
2019-06-27T10:56:59.348Z,100251.05
2019-06-27T10:59:28.201Z,100251.64
2019-06-27T11:01:56.603Z,100251.88
2019-06-27T11:04:25.016Z,100251.47
2019-06-27T11:06:53.715Z,100246.92
2019-06-27T11:09:22.125Z,100246.62
2019-06-27T11:11:50.585Z,100249.64
2019-06-27T11:14:19.436Z,100247.30
2019-06-27T11:16:47.870Z,100242.55
2019-06-27T11:19:16.295Z,100231.19
2019-06-27T11:21:44.755Z,100238.38
2019-06-27T11:24:13.447Z,100227.22
2019-06-27T11:26:41.857Z,100230.72
2019-06-27T11:29:10.251Z,100225.86
2019-06-27T11:31:38.676Z,100221.52
2019-06-27T11:34:07.073Z,100226.99
2019-06-27T11:36:35.476Z,100224.55
2019-06-27T11:39:05.399Z,100226.36
2019-06-27T11:41:33.802Z,100220.45
2019-06-27T11:44:02.230Z,100216.96
2019-06-27T11:46:30.816Z,100211.09
2019-06-27T11:48:59.538Z,100220.73
2019-06-27T11:51:27.969Z,100221.34
2019-06-27T11:53:56.373Z,100226.18
2019-06-27T11:56:25.001Z,100215.30
2019-06-27T11:58:53.370Z,100213.23
2019-06-27T12:01:21.774Z,100213.39
2019-06-27T12:03:50.220Z,100214.23
2019-06-27T12:06:18.626Z,100218.37
2019-06-27T12:08:47.011Z,100209.34
2019-06-27T12:11:15.415Z,100205.41
2019-06-27T12:13:43.828Z,100214.08
2019-06-27T12:16:12.235Z,100215.39
2019-06-27T12:18:40.678Z,100207.33
2019-06-27T12:21:09.077Z,100207.00
2019-06-27T12:23:37.518Z,100197.56
2019-06-27T12:26:05.924Z,100207.48
2019-06-27T12:28:34.329Z,100199.07
2019-06-27T12:31:10.272Z,100200.58
2019-06-27T12:33:32.893Z,100198.61
2019-06-27T12:36:01.290Z,100200.45
2019-06-27T12:38:29.719Z,100203.11
2019-06-27T12:40:58.191Z,100193.08
2019-06-27T12:43:26.629Z,100191.88
2019-06-27T12:45:55.036Z,100188.60
2019-06-27T12:48:23.433Z,100192.20
2019-06-27T12:50:51.848Z,100187.28
2019-06-27T12:53:20.333Z,100184.23
2019-06-27T12:55:49.476Z,100182.98
2019-06-27T12:58:17.889Z,100180.08
2019-06-27T13:00:46.290Z,100181.48
2019-06-27T13:03:14.702Z,100181.25
2019-06-27T13:05:43.115Z,100166.38
2019-06-27T13:08:11.546Z,100166.83
2019-06-27T13:10:39.951Z,100168.55
2019-06-27T13:13:08.374Z,100163.19
2019-06-27T13:15:36.755Z,100169.44
2019-06-27T13:18:05.167Z,100161.86
2019-06-27T13:20:33.821Z,100170.66
2019-06-27T13:23:02.230Z,100159.27
2019-06-27T13:25:34.034Z,100160.26
2019-06-27T13:28:00.773Z,100159.53
2019-06-27T13:30:29.174Z,100152.70
2019-06-27T13:32:57.941Z,100159.88
2019-06-27T13:35:26.347Z,100161.61
2019-06-27T13:37:54.748Z,100154.42
2019-06-27T13:40:23.227Z,100156.64
2019-06-27T13:42:55.296Z,100148.33
2019-06-27T13:45:21.867Z,100140.02
2019-06-27T13:47:50.293Z,100146.10
2019-06-27T13:50:19.545Z,100145.03
2019-06-27T13:52:48.428Z,100148.71
2019-06-27T13:55:16.969Z,100142.64
2019-06-27T13:57:45.396Z,100134.00
2019-06-27T14:00:14.642Z,100135.50
2019-06-27T14:02:43.039Z,100134.51
2019-06-27T14:05:11.525Z,100139.45
2019-06-27T14:07:39.994Z,100128.41
2019-06-27T14:10:09.067Z,100125.66
2019-06-27T14:12:37.560Z,100122.09
2019-06-27T14:15:08.308Z,100122.83
2019-06-27T14:17:36.729Z,100122.96
2019-06-27T14:20:07.542Z,100119.25
2019-06-27T14:22:36.014Z,100118.40
2019-06-27T14:25:06.084Z,100117.53
2019-06-27T14:27:34.487Z,100122.37
2019-06-27T14:30:02.965Z,100118.66
2019-06-27T14:32:31.382Z,100116.94
2019-06-27T14:35:14.893Z,100121.39
2019-06-27T14:37:30.492Z,100119.94
2019-06-27T14:39:58.898Z,100121.43
2019-06-27T14:42:27.277Z,100122.16
2019-06-27T14:44:55.744Z,100116.09
2019-06-27T14:47:24.133Z,100121.65
2019-06-27T14:49:52.546Z,100109.53
2019-06-27T14:52:20.981Z,100108.19
2019-06-27T14:54:49.392Z,100109.17
2019-06-27T14:57:17.799Z,100109.81
2019-06-27T14:59:46.222Z,100107.13
2019-06-27T15:02:14.628Z,100115.47
2019-06-27T15:04:43.031Z,100114.53
2019-06-27T15:07:11.462Z,100115.89
2019-06-27T15:09:39.865Z,100109.28
2019-06-27T15:12:08.263Z,100107.27
2019-06-27T15:14:36.673Z,100107.09
2019-06-27T15:17:05.088Z,100110.64
2019-06-27T15:19:33.486Z,100107.52
2019-06-27T15:22:01.888Z,100100.58
2019-06-27T15:24:30.573Z,100102.52
2019-06-27T15:26:58.982Z,100105.42
2019-06-27T15:29:27.410Z,100102.93
2019-06-27T15:31:55.813Z,100103.74
2019-06-27T15:34:24.238Z,100107.83
2019-06-27T15:36:52.636Z,100103.97
2019-06-27T15:39:21.407Z,100113.05
2019-06-27T15:41:49.829Z,100102.36
2019-06-27T15:44:20.639Z,100101.09
2019-06-27T15:46:48.376Z,100104.45
2019-06-27T15:49:16.779Z,100105.66
2019-06-27T15:51:45.191Z,100104.78
2019-06-27T15:54:13.636Z,100106.65
2019-06-27T15:56:42.020Z,100106.61
2019-06-27T15:59:10.430Z,100115.20
2019-06-27T16:01:38.841Z,100107.00
2019-06-27T16:04:07.298Z,100101.72
2019-06-27T16:06:35.664Z,100110.49
2019-06-27T16:09:05.103Z,100103.73
2019-06-27T16:11:33.505Z,100102.21
2019-06-27T16:14:01.995Z,100097.77
2019-06-27T16:16:30.411Z,100101.44
2019-06-27T16:18:58.837Z,100101.80
2019-06-27T16:21:27.234Z,100097.37
2019-06-27T16:23:55.641Z,100091.36
2019-06-27T16:26:24.047Z,100097.32
2019-06-27T16:28:52.484Z,100088.21
2019-06-27T16:31:20.889Z,100094.07
2019-06-27T16:33:49.289Z,100084.08
2019-06-27T16:36:25.294Z,100084.08
2019-06-27T16:38:47.835Z,100090.72
2019-06-27T16:41:16.237Z,100093.06
2019-06-27T16:43:44.721Z,100083.87
2019-06-27T16:46:13.132Z,100090.34
2019-06-27T16:48:41.517Z,100091.59
2019-06-27T16:51:09.992Z,100083.55
2019-06-27T16:53:38.390Z,100093.01
2019-06-27T16:56:06.826Z,100097.95
2019-06-27T16:58:35.223Z,100096.03
2019-06-27T17:01:03.656Z,100092.33
2019-06-27T17:03:32.048Z,100095.89
2019-06-27T17:06:00.460Z,100091.85
2019-06-27T17:08:28.895Z,100093.41
2019-06-27T17:10:58.787Z,100091.14
2019-06-27T17:13:27.368Z,100084.66
2019-06-27T17:15:55.773Z,100097.87
2019-06-27T17:18:24.172Z,100099.33
2019-06-27T17:20:52.592Z,100093.55
2019-06-27T17:23:20.996Z,100104.72
2019-06-27T17:25:49.412Z,100099.49
2019-06-27T17:28:17.883Z,100101.56
2019-06-27T17:30:46.281Z,100096.33
2019-06-27T17:33:14.777Z,100104.98
2019-06-27T17:35:43.440Z,100107.89
2019-06-27T17:38:11.831Z,100102.48
2019-06-27T17:40:40.237Z,100105.52
2019-06-27T17:43:08.631Z,100100.98
2019-06-27T17:45:37.137Z,100108.06
2019-06-27T17:48:05.543Z,100097.83
2019-06-27T17:50:33.943Z,100103.64
2019-06-27T17:53:02.401Z,100104.25
2019-06-27T17:55:30.782Z,100102.77
2019-06-27T17:57:59.184Z,100107.73
2019-06-27T18:00:27.585Z,100104.83
2019-06-27T18:02:55.988Z,100104.64
2019-06-27T18:05:24.415Z,100108.52
2019-06-27T18:07:52.819Z,100105.89
2019-06-27T18:10:21.484Z,100107.93
2019-06-27T18:12:49.898Z,100107.82
2019-06-27T18:15:18.805Z,100114.07
2019-06-27T18:17:47.244Z,100108.75
2019-06-27T18:20:16.086Z,100115.23
2019-06-27T18:22:44.494Z,100106.77
2019-06-27T18:25:12.888Z,100105.87
2019-06-27T18:27:41.290Z,100105.46
2019-06-27T18:30:10.160Z,100107.76
2019-06-27T18:32:38.559Z,100111.96
2019-06-27T18:35:07.254Z,100106.52
2019-06-27T18:37:35.684Z,100115.83
2019-06-27T18:40:05.432Z,100109.79
2019-06-27T18:42:33.817Z,100116.34
2019-06-27T18:45:02.582Z,100117.85
2019-06-27T18:47:30.984Z,100120.55
2019-06-27T18:49:59.404Z,100129.19
2019-06-27T18:52:27.852Z,100130.62
2019-06-27T18:54:56.358Z,100134.22
2019-06-27T18:57:24.761Z,100134.08
2019-06-27T18:59:53.878Z,100134.03
2019-06-27T19:02:22.383Z,100130.27
2019-06-27T19:04:50.786Z,100136.94
2019-06-27T19:07:19.190Z,100132.97
2019-06-27T19:09:47.601Z,100133.59
2019-06-27T19:12:19.106Z,100135.20
2019-06-27T19:14:46.136Z,100136.77
2019-06-27T19:17:14.553Z,100137.23
2019-06-27T19:19:44.589Z,100138.72
2019-06-27T19:22:31.110Z,100146.16
2019-06-27T19:25:01.191Z,100148.22
2019-06-27T19:27:29.591Z,100152.48
2019-06-27T19:29:58.563Z,100147.25
2019-06-27T19:32:26.933Z,100153.92
2019-06-27T19:34:55.378Z,100148.95
2019-06-27T19:37:23.739Z,100158.00
2019-06-27T19:39:52.174Z,100156.13
2019-06-27T19:42:20.590Z,100158.55
2019-06-27T19:44:48.992Z,100165.61
2019-06-27T19:47:17.400Z,100165.70
2019-06-27T19:49:45.795Z,100170.39
2019-06-27T19:52:14.226Z,100171.20
2019-06-27T19:54:42.641Z,100176.97
2019-06-27T19:57:11.043Z,100184.43
2019-06-27T19:59:39.452Z,100186.02
2019-06-27T20:02:08.330Z,100185.20
2019-06-27T20:04:36.775Z,100187.54
2019-06-27T20:07:05.243Z,100185.22
2019-06-27T20:09:33.651Z,100184.73
2019-06-27T20:12:02.203Z,100193.58
2019-06-27T20:14:30.677Z,100189.41
2019-06-27T20:16:59.093Z,100194.52
2019-06-27T20:19:27.495Z,100194.20
2019-06-27T20:21:55.910Z,100194.20
2019-06-27T20:24:24.390Z,100202.05
2019-06-27T20:26:52.785Z,100198.23
2019-06-27T20:29:21.217Z,100199.86
2019-06-27T20:31:49.621Z,100204.61
2019-06-27T20:34:18.029Z,100204.91
2019-06-27T20:36:46.860Z,100207.88
2019-06-27T20:39:15.263Z,100211.23
2019-06-27T20:41:43.669Z,100211.52
2019-06-27T20:44:12.075Z,100214.91
2019-06-27T20:46:40.490Z,100216.01
2019-06-27T20:49:08.986Z,100212.16
2019-06-27T20:51:37.386Z,100218.73
2019-06-27T20:54:05.784Z,100213.63
2019-06-27T20:56:34.203Z,100206.80
2019-06-27T20:59:02.608Z,100211.98
2019-06-27T21:01:31.858Z,100214.86
2019-06-27T21:04:00.498Z,100215.91
2019-06-27T21:06:28.864Z,100214.72
2019-06-27T21:08:57.260Z,100217.14
2019-06-27T21:11:25.666Z,100219.22
2019-06-27T21:13:54.085Z,100216.87
2019-06-27T21:16:22.483Z,100215.41
2019-06-27T21:18:52.347Z,100220.52
2019-06-27T21:21:21.029Z,100217.98
2019-06-27T21:23:49.447Z,100217.06
2019-06-27T21:26:17.852Z,100223.78
2019-06-27T21:28:46.253Z,100217.71
2019-06-27T21:31:14.686Z,100228.48
2019-06-27T21:33:43.101Z,100223.92
2019-06-27T21:36:11.511Z,100228.34
2019-06-27T21:38:39.910Z,100222.64
2019-06-27T21:41:08.317Z,100227.69
2019-06-27T21:43:36.716Z,100224.28
2019-06-27T21:46:05.324Z,100224.41
2019-06-27T21:48:33.720Z,100228.08
2019-06-27T21:51:02.130Z,100223.34
2019-06-27T21:53:30.540Z,100226.61
2019-06-27T21:55:58.953Z,100228.16
2019-06-27T21:58:27.367Z,100227.08
2019-06-27T22:00:55.886Z,100224.64
2019-06-27T22:03:24.351Z,100228.85
2019-06-27T22:05:52.757Z,100228.94
2019-06-27T22:08:21.199Z,100227.69
2019-06-27T22:10:49.611Z,100227.83
2019-06-27T22:13:18.017Z,100227.47
2019-06-27T22:15:46.451Z,100225.80
2019-06-27T22:18:14.871Z,100219.18
2019-06-27T22:20:43.260Z,100218.34
2019-06-27T22:23:11.673Z,100221.98
2019-06-27T22:25:41.114Z,100215.83
2019-06-27T22:28:09.786Z,100215.55
2019-06-27T22:30:38.204Z,100217.55
2019-06-27T22:33:06.571Z,100214.15
2019-06-27T22:35:35.061Z,100216.05
2019-06-27T22:38:22.287Z,100221.11
2019-06-27T22:41:08.447Z,100214.27
2019-06-27T22:43:54.962Z,100215.27
2019-06-27T22:46:41.384Z,100218.03
2019-06-27T22:49:09.568Z,100217.22
2019-06-27T22:51:58.019Z,100214.47
2019-06-27T22:54:28.075Z,100214.27
2019-06-27T22:56:56.493Z,100216.02
2019-06-27T22:59:24.898Z,100214.39
2019-06-27T23:01:53.311Z,100210.20
2019-06-27T23:04:21.719Z,100213.95
2019-06-27T23:06:50.120Z,100206.08
2019-06-27T23:09:18.526Z,100203.07
2019-06-27T23:11:46.935Z,100203.63
2019-06-27T23:14:15.334Z,100209.54
2019-06-27T23:16:43.754Z,100218.58
2019-06-27T23:19:12.155Z,100215.54
2019-06-27T23:21:40.820Z,100215.66
2019-06-27T23:24:09.237Z,100214.43
2019-06-27T23:26:37.647Z,100214.03
2019-06-27T23:29:06.072Z,100216.29
2019-06-27T23:31:34.474Z,100217.23
2019-06-27T23:34:02.882Z,100216.00
2019-06-27T23:36:31.303Z,100210.78
2019-06-27T23:38:59.691Z,100213.50
2019-06-27T23:41:28.110Z,100213.53
2019-06-27T23:43:56.510Z,100217.14
2019-06-27T23:46:43.353Z,100211.91
2019-06-27T23:49:12.401Z,100215.08
2019-06-27T23:51:41.004Z,100214.66
2019-06-27T23:54:10.459Z,100212.44
2019-06-27T23:56:38.862Z,100215.58
2019-06-27T23:59:07.268Z,100213.35
